Time;durP1;ratioP1;P1;durP2;ratioP2;P2;SDS_P1;SDS_P2;PMS_P1;PMS_P2;Temp;Humidity;BMP_temperature;BMP_pressure;BME280_temperature;BME280_humidity;BME280_pressure;Samples;Min_cycle;Max_cycle;Signal;HPM_P1;HPM_P2
2022/05/20 00:08:24;;;;;;;16.73;6.53;;;;;;;17.02;53.35;100461.06;713177;1174;115610;-73
2022/05/20 00:23:26;;;;;;;22.88;10.78;;;;;;;16.58;54.66;100440.38;713204;1174;115547;-72
2022/05/20 00:38:29;;;;;;;15.83;7.30;;;;;;;16.62;54.15;100434.55;713417;1174;114791;-73
2022/05/20 00:53:38;;;;;;;136.40;51.10;;;;;;;16.59;54.36;100416.36;713322;1174;115726;-72
2022/05/20 01:08:41;;;;;;;22.45;12.23;;;;;;;16.47;54.88;100400.02;713009;1174;115852;-72
2022/05/20 01:23:43;;;;;;;14.45;8.55;;;;;;;16.40;54.45;100396.39;713382;1173;115685;-72
2022/05/20 01:38:46;;;;;;;11.60;6.18;;;;;;;16.29;54.23;100391.48;712989;1174;115797;-72
2022/05/20 01:53:56;;;;;;;13.20;5.90;;;;;;;16.03;54.82;100387.23;713386;1174;114877;-72
2022/05/20 02:09:01;;;;;;;16.18;8.10;;;;;;;15.93;55.40;100387.42;713027;1174;114405;-72
2022/05/20 02:24:07;;;;;;;10.57;5.80;;;;;;;15.97;55.60;100372.05;713064;1174;115541;-72
2022/05/20 02:39:16;;;;;;;24.03;6.83;;;;;;;16.03;56.06;100363.41;713379;1174;115689;-72
2022/05/20 02:54:18;;;;;;;11.28;5.60;;;;;;;16.19;56.36;100340.56;713524;1173;115657;-73
2022/05/20 03:09:24;;;;;;;10.28;5.83;;;;;;;16.16;56.23;100347.02;713053;1174;116113;-72
2022/05/20 03:24:27;;;;;;;8.50;5.83;;;;;;;16.16;56.90;100356.78;713243;1174;115246;-72
2022/05/20 03:39:29;;;;;;;7.53;4.68;;;;;;;16.46;57.18;100355.19;713024;1174;114522;-72
2022/05/20 03:54:33;;;;;;;10.45;4.95;;;;;;;16.56;57.75;100339.92;713185;1174;114190;-72
2022/05/20 04:09:35;;;;;;;9.50;5.50;;;;;;;17.00;57.52;100337.70;713229;1174;115249;-73
2022/05/20 04:24:38;;;;;;;8.70;4.45;;;;;;;17.66;57.07;100339.81;713473;1174;114683;-74
2022/05/20 04:39:41;;;;;;;12.35;5.18;;;;;;;18.34;57.15;100337.13;713240;1173;115583;-82
2022/05/20 04:54:50;;;;;;;6.90;4.23;;;;;;;18.66;56.60;100343.88;713349;1174;113856;-76
2022/05/20 05:09:53;;;;;;;11.08;4.78;;;;;;;18.81;56.42;100350.98;713186;1174;114175;-75
2022/05/20 05:24:55;;;;;;;11.47;5.43;;;;;;;19.02;57.37;100348.36;713407;1174;114059;-74
2022/05/20 05:39:58;;;;;;;7.65;4.38;;;;;;;19.67;57.09;100342.98;713206;1173;114122;-75
2022/05/20 05:55:03;;;;;;;14.68;4.98;;;;;;;20.07;57.18;100353.93;713139;1174;114240;-76
2022/05/20 06:10:05;;;;;;;6.55;4.03;;;;;;;20.92;56.83;100352.86;713190;1174;114745;-78
2022/05/20 06:25:09;;;;;;;10.53;3.78;;;;;;;21.58;55.30;100360.11;713302;1174;115571;-77
2022/05/20 06:40:15;;;;;;;10.68;3.90;;;;;;;22.38;54.60;100342.30;713566;1174;115314;-78
2022/05/20 06:55:18;;;;;;;4.55;3.38;;;;;;;23.25;54.25;100339.14;713649;1174;114783;-79
2022/05/20 07:10:20;;;;;;;5.93;3.30;;;;;;;24.05;55.25;100338.42;714183;1174;115283;-79
2022/05/20 07:25:22;;;;;;;5.60;3.10;;;;;;;24.92;55.76;100334.65;714198;1174;114870;-79
2022/05/20 07:40:24;;;;;;;7.30;3.00;;;;;;;25.11;56.56;100339.13;714466;1174;113937;-79
2022/05/20 07:55:29;;;;;;;4.68;2.88;;;;;;;25.72;56.27;100343.30;713797;1174;115020;-80
2022/05/20 08:10:35;;;;;;;5.50;2.75;;;;;;;26.31;56.39;100349.66;713987;1174;115416;-80
2022/05/20 08:25:38;;;;;;;5.75;2.83;;;;;;;26.37;57.62;100357.58;714135;1174;113858;-80
2022/05/20 08:40:46;;;;;;;5.90;2.75;;;;;;;26.92;57.16;100355.38;715559;1174;114029;-80
2022/05/20 08:55:49;;;;;;;4.73;2.83;;;;;;;27.53;56.72;100354.77;714718;1174;114741;-73
2022/05/20 09:10:58;;;;;;;4.73;2.57;;;;;;;27.60;56.45;100336.58;713350;1174;114670;-73
2022/05/20 09:26:00;;;;;;;4.83;3.00;;;;;;;28.73;55.88;100323.67;713513;1174;113967;-73
2022/05/20 09:41:20;;;;;;;6.15;3.55;;;;;;;28.13;56.50;100337.03;713650;1174;115257;-76
2022/05/20 09:56:29;;;;;;;17.00;10.63;;;;;;;28.42;55.30;100338.72;713240;1174;115293;-75
2022/05/20 10:11:35;;;;;;;;;;;;;;;27.82;58.70;100335.79;717605;1174;115486;-75
2022/05/20 10:27:05;;;;;;;9.90;3.83;;;;;;;28.96;58.12;100336.03;719555;1174;101436;-77
2022/05/20 10:42:25;;;;;;;10.13;5.07;;;;;;;27.85;59.75;100354.17;713681;1174;114279;-76
2022/05/20 10:57:56;;;;;;;6.75;4.80;;;;;;;28.31;59.33;100343.16;713674;1174;114734;-73
2022/05/20 11:13:06;;;;;;;8.15;4.53;;;;;;;28.09;60.16;100357.48;714093;1174;114001;-77
2022/05/20 11:28:12;;;;;;;8.65;5.05;;;;;;;27.68;60.09;100356.90;714268;1174;114949;-79
2022/05/20 11:43:32;;;;;;;7.03;5.10;;;;;;;27.90;59.82;100357.75;714126;1174;114378;-78
2022/05/20 11:58:51;;;;;;;7.93;4.47;;;;;;;27.99;58.20;100331.19;713587;1174;114697;-78
2022/05/20 12:14:04;;;;;;;6.35;4.65;;;;;;;27.81;58.74;100342.27;713883;1174;115073;-79
2022/05/20 12:29:39;;;;;;;4.80;3.65;;;;;;;29.45;56.36;100328.88;713617;1174;114958;-79
2022/05/20 12:44:41;;;;;;;10.20;7.25;;;;;;;28.81;54.57;100327.80;713238;1174;114413;-78
2022/05/20 12:59:49;;;;;;;4.98;4.35;;;;;;;29.10;55.12;100305.91;714308;1174;116191;-79
2022/05/20 13:15:07;;;;;;;38.07;27.33;;;;;;;29.83;53.00;100292.59;720749;1174;114765;-78
2022/05/20 13:30:18;;;;;;;8.07;4.90;;;;;;;28.46;54.39;100291.29;714201;1174;115282;-79
2022/05/20 14:01:04;;;;;;;7.85;4.63;;;;;;;30.21;51.43;100268.16;714426;1174;114160;-78
2022/05/20 14:16:17;;;;;;;8.63;3.35;;;;;;;29.36;52.03;100269.95;713715;1167;114826;-77
2022/05/20 14:31:43;;;;;;;5.38;4.10;;;;;;;29.04;54.02;100288.86;713533;1174;115374;-80
2022/05/20 14:47:16;;;;;;;6.73;3.53;;;;;;;30.17;53.11;100261.63;713824;1174;115103;-76
2022/05/20 15:02:19;;;;;;;3.78;2.95;;;;;;;30.01;53.06;100250.80;713760;1174;114049;-78
2022/05/20 15:17:23;;;;;;;5.87;3.87;;;;;;;28.73;54.11;100269.70;713353;1174;114785;-78
2022/05/20 15:47:51;;;;;;;6.80;3.83;;;;;;;27.94;55.49;100244.87;713968;1175;115754;-81
2022/05/20 16:02:54;;;;;;;3.40;2.80;;;;;;;28.48;55.15;100219.83;713729;1174;114089;-80
2022/05/20 16:17:58;;;;;;;2.93;2.30;;;;;;;28.22;54.63;100213.38;713692;1174;115359;-80
2022/05/20 16:33:01;;;;;;;6.50;4.30;;;;;;;27.76;56.00;100191.30;713607;1174;114820;-79
2022/05/20 16:48:09;;;;;;;4.50;2.50;;;;;;;27.47;55.59;100178.02;713817;1174;115322;-80
2022/05/20 17:03:11;;;;;;;7.17;3.53;;;;;;;26.65;56.32;100173.05;713541;1174;114615;-79
2022/05/20 17:18:15;;;;;;;8.83;2.53;;;;;;;26.01;57.56;100170.57;713635;1174;114758;-80
2022/05/20 17:33:18;;;;;;;6.70;3.25;;;;;;;25.78;57.99;100144.64;713499;1174;113969;-79
2022/05/20 17:48:20;;;;;;;8.10;3.25;;;;;;;25.46;58.77;100148.58;714058;1174;114245;-80
2022/05/20 18:03:22;;;;;;;17.28;10.25;;;;;;;25.05;59.18;100139.64;713854;1174;114703;-82
2022/05/20 18:18:25;;;;;;;25.88;13.13;;;;;;;24.61;60.29;100107.76;713480;1174;115089;-78
2022/05/20 18:33:30;;;;;;;27.90;13.43;;;;;;;24.12;60.95;100126.68;713598;1174;114995;-78
2022/05/20 18:48:34;;;;;;;29.55;16.43;;;;;;;23.35;62.45;100106.66;713622;1174;114604;-77
2022/05/20 19:03:45;;;;;;;18.20;8.93;;;;;;;22.58;64.53;100091.78;713628;1174;115050;-77
2022/05/20 19:18:49;;;;;;;87.03;39.10;;;;;;;22.27;65.84;100084.60;713763;1174;114170;-76
2022/05/20 19:33:53;;;;;;;55.50;28.67;;;;;;;21.90;66.72;100073.77;713477;1174;115200;-78
2022/05/20 19:48:57;;;;;;;38.53;21.18;;;;;;;21.49;67.37;100066.98;713652;1174;115594;-77
2022/05/20 20:04:01;;;;;;;35.03;18.13;;;;;;;21.04;68.13;100033.11;713263;1174;115492;-75
2022/05/20 20:19:07;;;;;;;22.75;11.20;;;;;;;20.69;68.99;100004.05;713907;1174;115688;-79
2022/05/20 20:34:11;;;;;;;31.00;13.25;;;;;;;20.37;70.31;99966.61;713435;1174;114813;-78
2022/05/20 20:49:14;;;;;;;13.10;8.23;;;;;;;20.02;72.89;99959.68;713546;1174;114282;-77
2022/05/20 21:04:18;;;;;;;18.27;9.67;;;;;;;19.64;74.41;99938.95;713670;1174;114571;-79
2022/05/20 21:19:25;;;;;;;13.23;8.13;;;;;;;19.31;75.93;99909.63;713251;1174;113855;-78
2022/05/20 21:34:28;;;;;;;14.73;7.97;;;;;;;18.98;77.31;99919.17;713139;1173;114709;-73
2022/05/20 21:49:32;;;;;;;12.47;7.47;;;;;;;18.78;78.16;99895.16;713192;1174;115500;-73
2022/05/20 22:19:57;;;;;;;12.48;8.45;;;;;;;18.62;78.04;99881.19;713761;1174;114874;-81
2022/05/20 22:35:00;;;;;;;11.70;8.33;;;;;;;18.57;78.86;99854.41;713488;1174;115329;-81
2022/05/20 22:50:03;;;;;;;10.30;7.30;;;;;;;18.20;80.02;99813.16;713431;1174;115388;-81
2022/05/20 23:05:06;;;;;;;12.07;7.60;;;;;;;18.13;80.91;99776.81;713256;1174;114966;-81
2022/05/20 23:20:10;;;;;;;11.90;7.83;;;;;;;18.09;81.56;99746.38;713457;1174;115024;-80
2022/05/20 23:35:12;;;;;;;14.03;8.68;;;;;;;18.00;82.05;99715.72;713303;1174;114148;-81
2022/05/20 23:50:15;;;;;;;11.23;7.43;;;;;;;17.87;82.61;99691.73;713327;1174;114132;-77
